createdAt,value
2019-04-03T00:01:13.779Z,12.50
2019-04-03T00:06:18.085Z,12.40
2019-04-03T00:11:22.348Z,12.40
2019-04-03T00:16:26.534Z,12.40
2019-04-03T00:21:30.707Z,12.40
2019-04-03T00:26:34.898Z,12.30
2019-04-03T00:31:39.284Z,12.20
2019-04-03T00:36:43.522Z,12.30
2019-04-03T00:41:47.889Z,12.30
2019-04-03T00:46:52.184Z,12.30
2019-04-03T00:51:57.661Z,12.30
2019-04-03T00:57:02.308Z,12.30
2019-04-03T01:02:06.526Z,12.20
2019-04-03T01:07:10.702Z,12.20
2019-04-03T01:12:14.873Z,12.20
2019-04-03T01:17:19.092Z,12.20
2019-04-03T01:22:23.254Z,12.10
2019-04-03T01:27:27.413Z,12.20
2019-04-03T01:32:31.589Z,12.20
2019-04-03T01:37:35.775Z,12.30
2019-04-03T01:42:39.974Z,12.00
2019-04-03T01:47:44.340Z,12.00
2019-04-03T01:52:48.561Z,11.90
2019-04-03T01:57:52.784Z,11.90
2019-04-03T02:02:57.112Z,11.80
2019-04-03T02:08:01.311Z,11.90
2019-04-03T02:13:05.500Z,11.70
2019-04-03T02:18:09.773Z,11.60
2019-04-03T02:23:13.977Z,11.60
2019-04-03T02:28:18.216Z,11.60
2019-04-03T02:33:22.392Z,11.60
2019-04-03T02:38:26.584Z,11.70
2019-04-03T02:43:30.879Z,11.90
2019-04-03T02:48:38.292Z,11.90
2019-04-03T02:53:41.253Z,11.90
2019-04-03T02:58:45.448Z,11.90
2019-04-03T03:03:50.240Z,11.80
2019-04-03T03:08:54.867Z,11.80
2019-04-03T03:14:00.269Z,12.10
2019-04-03T03:19:04.774Z,12.00
2019-04-03T03:24:09.542Z,12.00
2019-04-03T03:29:17.898Z,12.00
2019-04-03T03:34:43.690Z,12.00
2019-04-03T03:39:26.102Z,11.90
2019-04-03T03:44:31.131Z,11.90
2019-04-03T03:49:36.892Z,11.90
2019-04-03T03:54:41.151Z,11.80
2019-04-03T03:59:49.480Z,11.70
2019-04-03T04:04:51.761Z,11.60
2019-04-03T04:09:56.243Z,11.50
2019-04-03T04:15:00.759Z,11.40
2019-04-03T04:20:06.291Z,11.40
2019-04-03T04:25:10.610Z,11.20
2019-04-03T04:30:18.884Z,11.20
2019-04-03T04:35:23.091Z,11.20
2019-04-03T04:40:28.771Z,11.10
2019-04-03T04:45:33.873Z,10.90
2019-04-03T04:50:38.370Z,11.10
2019-04-03T04:55:42.571Z,11.00
2019-04-03T05:00:47.795Z,11.00
2019-04-03T05:05:52.245Z,10.90
2019-04-03T05:10:56.525Z,10.90
2019-04-03T05:16:00.816Z,10.70
2019-04-03T05:21:05.272Z,10.60
2019-04-03T05:26:09.510Z,10.60
2019-04-03T05:31:13.708Z,10.90
2019-04-03T05:36:18.373Z,11.20
2019-04-03T05:41:23.004Z,11.20
2019-04-03T05:46:27.374Z,11.20
2019-04-03T05:51:31.574Z,11.40
2019-04-03T05:56:35.963Z,11.40
2019-04-03T06:01:41.957Z,11.60
2019-04-03T06:06:47.234Z,11.60
2019-04-03T06:11:52.736Z,11.60
2019-04-03T06:16:57.322Z,11.80
2019-04-03T06:22:01.705Z,12.10
2019-04-03T06:27:06.005Z,12.50
2019-04-03T06:32:11.699Z,12.50
2019-04-03T06:37:15.882Z,12.50
2019-04-03T06:42:20.076Z,12.60
2019-04-03T06:47:24.305Z,12.80
2019-04-03T06:52:28.650Z,12.90
2019-04-03T06:57:33.031Z,12.70
2019-04-03T07:02:37.383Z,12.60
2019-04-03T07:07:41.654Z,12.80
2019-04-03T07:12:46.451Z,12.80
2019-04-03T07:17:51.759Z,12.90
2019-04-03T07:22:56.972Z,12.80
2019-04-03T07:28:02.061Z,13.00
2019-04-03T07:33:06.390Z,13.10
2019-04-03T07:38:10.670Z,13.10
2019-04-03T07:43:14.860Z,13.40
2019-04-03T07:48:19.139Z,13.40
2019-04-03T07:53:23.402Z,13.60
2019-04-03T07:58:30.669Z,13.40
2019-04-03T08:03:33.638Z,13.70
2019-04-03T08:08:38.176Z,13.90
2019-04-03T08:13:43.353Z,13.80
2019-04-03T08:18:47.544Z,14.00
2019-04-03T08:23:51.806Z,13.80
2019-04-03T08:33:27.752Z,13.50
2019-04-03T08:38:32.526Z,13.50
2019-04-03T08:43:36.851Z,13.50
2019-04-03T08:48:41.153Z,13.80
2019-04-03T08:53:45.404Z,13.80
2019-04-03T08:58:49.603Z,14.00
2019-04-03T09:03:53.825Z,14.40
2019-04-03T09:08:58.706Z,14.40
2019-04-03T09:18:30.572Z,14.30
2019-04-03T09:23:35.205Z,14.40
2019-04-03T09:28:41.137Z,14.60
2019-04-03T09:33:45.303Z,14.50
2019-04-03T09:38:49.497Z,14.40
2019-04-03T09:43:54.613Z,14.30
2019-04-03T09:48:59.184Z,14.20
2019-04-03T09:54:03.803Z,14.30
2019-04-03T09:59:08.242Z,14.10
2019-04-03T10:04:12.616Z,14.40
2019-04-03T10:09:16.920Z,14.50
2019-04-03T10:14:21.139Z,14.50
2019-04-03T10:19:25.545Z,14.60
2019-04-03T10:24:30.989Z,14.70
2019-04-03T10:29:35.738Z,15.00
2019-04-03T10:39:44.861Z,16.00
2019-04-03T10:44:49.399Z,16.40
2019-04-03T10:49:53.753Z,16.00
2019-04-03T10:54:58.008Z,16.90
2019-04-03T11:00:02.438Z,16.50
2019-04-03T11:05:07.698Z,16.70
2019-04-03T11:10:13.558Z,16.90
2019-04-03T11:15:18.183Z,16.70
2019-04-03T11:20:22.604Z,16.90
2019-04-03T11:25:26.785Z,16.40
2019-04-03T11:30:31.103Z,16.10
2019-04-03T11:35:35.325Z,16.00
2019-04-03T11:40:39.585Z,15.90
2019-04-03T11:45:44.074Z,15.60
2019-04-03T11:50:48.401Z,16.00
2019-04-03T11:55:52.620Z,16.20
2019-04-03T12:00:56.892Z,16.50
2019-04-03T12:06:01.106Z,16.60
2019-04-03T12:11:06.967Z,16.10
2019-04-03T12:16:12.152Z,15.80
2019-04-03T12:21:18.382Z,16.00
2019-04-03T12:26:22.488Z,16.10
2019-04-03T12:31:26.713Z,16.50
2019-04-03T12:36:31.289Z,16.90
2019-04-03T12:41:36.430Z,16.90
2019-04-03T12:46:41.845Z,16.90
2019-04-03T12:51:46.161Z,16.40
2019-04-03T12:56:50.396Z,16.60
2019-04-03T13:01:55.023Z,16.40
2019-04-03T13:06:59.354Z,16.40
2019-04-03T13:12:04.240Z,16.40
2019-04-03T13:17:08.539Z,16.70
2019-04-03T13:22:12.784Z,17.00
2019-04-03T13:27:17.099Z,18.00
2019-04-03T13:32:23.077Z,19.20
2019-04-03T13:37:27.499Z,19.10
2019-04-03T13:42:32.261Z,19.30
2019-04-03T13:47:39.727Z,19.10
2019-04-03T13:52:47.606Z,18.00
2019-04-03T13:57:49.837Z,17.60
2019-04-03T14:02:57.063Z,17.10
2019-04-03T14:08:00.497Z,16.80
2019-04-03T14:13:04.851Z,16.60
2019-04-03T14:18:09.424Z,16.60
2019-04-03T14:23:13.800Z,17.10
2019-04-03T14:28:18.454Z,18.80
2019-04-03T14:33:23.453Z,18.80
2019-04-03T14:38:29.222Z,17.80
2019-04-03T14:43:34.525Z,17.50
2019-04-03T14:48:39.504Z,17.00
2019-04-03T14:53:43.684Z,16.80
2019-04-03T14:58:48.389Z,16.90
2019-04-03T15:03:52.751Z,16.80
2019-04-03T20:40:09.795Z,11.30
2019-04-03T20:45:14.428Z,11.40
2019-04-03T20:50:18.717Z,11.60
2019-04-03T20:55:24.807Z,11.60
2019-04-03T21:00:28.933Z,11.60
2019-04-03T21:05:33.148Z,11.60
2019-04-03T21:10:37.370Z,11.40
2019-04-03T21:15:41.576Z,11.00
2019-04-03T21:20:45.786Z,10.60
2019-04-03T21:25:50.015Z,10.50
2019-04-03T21:30:54.903Z,10.40
2019-04-03T21:35:59.741Z,10.00
2019-04-03T21:41:04.131Z,9.30
2019-04-03T21:46:08.962Z,9.10
2019-04-03T21:51:13.818Z,9.20
2019-04-03T21:56:18.043Z,8.90
2019-04-03T22:01:24.777Z,8.80
2019-04-03T22:06:29.024Z,8.80
2019-04-03T22:11:35.589Z,8.70
2019-04-03T22:16:39.400Z,8.70
2019-04-03T22:21:43.650Z,8.70
2019-04-03T22:26:47.891Z,8.70
2019-04-03T22:31:54.413Z,8.80
2019-04-03T22:36:58.292Z,8.80
2019-04-03T22:42:02.706Z,8.80
2019-04-03T22:47:06.951Z,8.90
2019-04-03T22:52:11.342Z,9.10
2019-04-03T22:57:15.712Z,8.90
2019-04-03T23:02:20.052Z,8.90
2019-04-03T23:07:24.372Z,8.90
2019-04-03T23:12:28.751Z,8.80
2019-04-03T23:17:33.525Z,9.00
2019-04-03T23:22:37.886Z,9.10
2019-04-03T23:27:42.271Z,9.00
2019-04-03T23:32:46.651Z,8.90
2019-04-03T23:37:51.043Z,8.90
2019-04-03T23:42:55.405Z,9.00
2019-04-03T23:48:00.230Z,9.00
2019-04-03T23:53:04.698Z,8.90
2019-04-03T23:58:10.789Z,9.00
